createdAt,value
2023-12-08T00:02:27.059Z,4.12
2023-12-08T00:04:55.964Z,4.09
2023-12-08T00:07:24.537Z,4.08
2023-12-08T00:09:53.630Z,4.07
2023-12-08T00:12:22.926Z,4.07
2023-12-08T00:14:52.878Z,4.06
2023-12-08T00:17:21.831Z,4.04
2023-12-08T00:19:50.776Z,4.04
2023-12-08T00:22:19.830Z,4.01
2023-12-08T00:24:49.136Z,3.99
2023-12-08T00:27:17.598Z,3.98
2023-12-08T00:29:46.204Z,3.96
2023-12-08T00:32:14.795Z,3.96
2023-12-08T00:34:43.590Z,3.97
2023-12-08T00:37:12.034Z,3.99
2023-12-08T00:39:42.034Z,4.00
2023-12-08T00:42:11.725Z,4.01
2023-12-08T00:44:40.165Z,4.00
2023-12-08T00:47:08.733Z,3.99
2023-12-08T00:49:37.841Z,3.98
2023-12-08T00:52:07.744Z,3.95
2023-12-08T00:54:36.227Z,3.91
2023-12-08T00:57:05.216Z,3.88
2023-12-08T00:59:33.862Z,3.87
2023-12-08T01:02:02.298Z,3.88
2023-12-08T01:04:30.752Z,3.88
2023-12-08T01:06:59.353Z,3.88
2023-12-08T01:09:28.026Z,3.87
2023-12-08T01:11:56.471Z,3.86
2023-12-08T01:14:25.098Z,3.87
2023-12-08T01:16:53.984Z,3.85
2023-12-08T01:19:22.540Z,3.86
2023-12-08T01:21:51.465Z,3.84
2023-12-08T01:24:19.978Z,3.84
2023-12-08T01:26:48.579Z,3.82
2023-12-08T01:29:18.545Z,3.79
2023-12-08T01:31:47.336Z,3.77
2023-12-08T01:34:16.276Z,3.74
2023-12-08T01:36:45.075Z,3.72
2023-12-08T01:39:14.196Z,3.69
2023-12-08T01:41:42.838Z,3.66
2023-12-08T01:44:11.786Z,3.62
2023-12-08T01:46:40.277Z,3.60
2023-12-08T01:49:09.154Z,3.58
2023-12-08T01:51:37.846Z,3.55
2023-12-08T01:54:07.739Z,3.51
2023-12-08T01:56:37.331Z,3.48
2023-12-08T01:59:06.084Z,3.47
2023-12-08T02:01:35.162Z,3.43
2023-12-08T02:04:04.751Z,3.41
2023-12-08T02:06:33.380Z,3.38
2023-12-08T02:09:01.879Z,3.35
2023-12-08T02:11:30.493Z,3.32
2023-12-08T02:13:59.604Z,3.29
2023-12-08T02:16:35.313Z,3.26
2023-12-08T02:19:07.860Z,3.25
2023-12-08T02:21:37.256Z,3.21
2023-12-08T02:24:06.212Z,3.16
2023-12-08T02:26:34.935Z,3.09
2023-12-08T02:29:07.300Z,3.05
2023-12-08T02:31:49.585Z,3.02
2023-12-08T02:34:19.959Z,2.99
2023-12-08T02:36:51.669Z,2.96
2023-12-08T02:39:21.664Z,2.93
2023-12-08T02:41:50.535Z,2.88
2023-12-08T02:44:19.170Z,2.85
2023-12-08T02:46:47.947Z,2.82
2023-12-08T02:49:16.642Z,2.79
2023-12-08T02:51:45.336Z,2.76
2023-12-08T02:54:13.927Z,2.74
2023-12-08T02:56:42.827Z,2.67
2023-12-08T02:59:11.181Z,2.62
2023-12-08T03:01:39.871Z,2.59
2023-12-08T03:04:08.663Z,2.54
2023-12-08T03:06:37.134Z,2.47
2023-12-08T03:09:06.385Z,2.44
2023-12-08T03:11:35.086Z,2.40
2023-12-08T03:14:03.604Z,2.37
2023-12-08T03:16:32.086Z,2.35
2023-12-08T03:19:00.776Z,2.35
2023-12-08T03:21:29.573Z,2.33
2023-12-08T03:23:58.429Z,2.33
2023-12-08T03:26:27.342Z,2.33
2023-12-08T03:28:55.916Z,2.31
2023-12-08T03:31:32.716Z,2.30
2023-12-08T03:34:01.542Z,2.26
2023-12-08T03:36:30.482Z,2.23
2023-12-08T03:38:59.190Z,2.23
2023-12-08T03:41:27.752Z,2.23
2023-12-08T03:43:56.865Z,2.24
2023-12-08T03:46:25.435Z,2.22
2023-12-08T03:48:55.569Z,2.17
2023-12-08T03:51:24.451Z,2.18
2023-12-08T03:53:53.063Z,2.19
2023-12-08T03:56:21.567Z,2.18
2023-12-08T03:58:49.893Z,2.18
2023-12-08T04:01:21.829Z,2.19
2023-12-08T04:03:50.546Z,2.20
2023-12-08T04:06:19.566Z,2.20
2023-12-08T04:08:48.361Z,2.22
2023-12-08T04:11:16.899Z,2.23
2023-12-08T04:13:45.516Z,2.22
2023-12-08T04:16:15.908Z,2.22
2023-12-08T04:18:44.521Z,2.22
2023-12-08T04:21:22.104Z,2.23
2023-12-08T04:23:50.484Z,2.25
2023-12-08T04:26:22.421Z,2.21
2023-12-08T04:28:50.803Z,2.19
2023-12-08T04:31:19.597Z,2.18
2023-12-08T04:33:49.673Z,2.17
2023-12-08T04:36:18.417Z,2.15
2023-12-08T04:38:47.107Z,2.15
2023-12-08T04:41:18.298Z,2.13
2023-12-08T04:43:48.804Z,2.12
2023-12-08T04:46:19.504Z,2.10
2023-12-08T04:48:48.524Z,2.07
2023-12-08T04:51:17.272Z,2.02
2023-12-08T04:53:45.694Z,1.91
2023-12-08T04:56:14.457Z,1.86
2023-12-08T04:58:42.830Z,1.81
2023-12-08T05:01:15.631Z,1.76
2023-12-08T05:03:44.112Z,1.74
2023-12-08T05:06:12.589Z,1.68
2023-12-08T05:08:41.434Z,1.66
2023-12-08T05:11:09.946Z,1.61
2023-12-08T05:13:38.515Z,1.59
2023-12-08T05:16:07.516Z,1.53
2023-12-08T05:18:36.876Z,1.47
2023-12-08T05:21:05.641Z,1.42
2023-12-08T05:23:34.208Z,1.39
2023-12-08T05:26:02.978Z,1.35
2023-12-08T05:28:31.464Z,1.25
2023-12-08T05:31:00.195Z,1.22
2023-12-08T05:33:29.281Z,1.16
2023-12-08T05:35:58.283Z,1.14
2023-12-08T05:38:27.331Z,1.09
2023-12-08T05:40:57.361Z,1.06
2023-12-08T05:43:27.164Z,1.01
2023-12-08T05:45:55.536Z,0.95
2023-12-08T05:48:24.503Z,0.97
2023-12-08T05:50:53.385Z,0.99
2023-12-08T05:53:21.918Z,1.00
2023-12-08T05:55:51.316Z,0.98
2023-12-08T05:58:19.736Z,0.98
2023-12-08T06:00:48.413Z,0.96
2023-12-08T06:03:18.827Z,0.98
2023-12-08T06:05:47.546Z,0.97
2023-12-08T06:08:16.179Z,0.98
2023-12-08T06:10:48.028Z,0.97
2023-12-08T06:13:17.762Z,0.97
2023-12-08T06:15:46.086Z,0.97
2023-12-08T06:18:15.438Z,0.96
2023-12-08T06:20:44.585Z,0.96
2023-12-08T06:23:13.213Z,0.96
2023-12-08T06:25:43.541Z,0.96
2023-12-08T06:28:12.829Z,0.97
2023-12-08T06:30:41.896Z,0.98
2023-12-08T06:33:10.662Z,1.00
2023-12-08T06:35:39.418Z,1.04
2023-12-08T06:38:07.974Z,1.05
2023-12-08T06:40:36.561Z,1.07
2023-12-08T06:43:05.577Z,1.09
2023-12-08T06:45:34.496Z,1.10
2023-12-08T06:48:03.219Z,1.11
2023-12-08T06:50:32.316Z,1.14
2023-12-08T06:53:01.753Z,1.14
2023-12-08T06:55:30.831Z,1.14
2023-12-08T06:57:59.414Z,1.10
2023-12-08T07:00:28.367Z,1.08
2023-12-08T07:02:57.749Z,1.07
2023-12-08T07:05:27.037Z,1.04
2023-12-08T07:07:57.961Z,1.01
2023-12-08T07:10:27.948Z,1.01
2023-12-08T07:12:57.383Z,0.98
2023-12-08T07:15:26.995Z,1.00
2023-12-08T07:17:57.103Z,1.01
2023-12-08T07:20:26.705Z,1.02
2023-12-08T07:22:58.166Z,1.06
2023-12-08T07:25:27.569Z,1.08
2023-12-08T07:27:57.232Z,1.08
2023-12-08T07:30:26.234Z,1.08
2023-12-08T07:32:55.680Z,1.10
2023-12-08T07:35:24.554Z,1.12
2023-12-08T07:37:53.446Z,1.14
2023-12-08T07:40:22.136Z,1.16
2023-12-08T07:42:51.037Z,1.19
2023-12-08T07:45:20.200Z,1.23
2023-12-08T07:47:52.202Z,1.28
2023-12-08T07:50:21.498Z,1.32
2023-12-08T07:52:50.189Z,1.36
2023-12-08T07:55:18.869Z,1.33
2023-12-08T07:57:48.195Z,1.36
2023-12-08T08:00:18.410Z,1.36
2023-12-08T08:02:47.577Z,1.37
2023-12-08T08:05:17.520Z,1.37
2023-12-08T08:07:46.668Z,1.36
2023-12-08T08:10:15.475Z,1.36
2023-12-08T08:12:44.786Z,1.34
2023-12-08T08:15:14.205Z,1.37
2023-12-08T08:17:43.793Z,1.38
2023-12-08T08:20:13.700Z,1.34
2023-12-08T08:22:43.919Z,1.31
2023-12-08T08:25:13.186Z,1.32
2023-12-08T08:27:42.475Z,1.33
2023-12-08T08:30:12.244Z,1.33
2023-12-08T08:32:41.828Z,1.37
2023-12-08T08:35:11.717Z,1.41
2023-12-08T08:37:41.208Z,1.43
2023-12-08T08:40:11.370Z,1.46
2023-12-08T08:42:40.671Z,1.51
2023-12-08T08:45:11.355Z,1.57
2023-12-08T08:47:41.719Z,1.61
2023-12-08T08:50:11.004Z,1.69
2023-12-08T08:52:40.363Z,1.77
2023-12-08T08:55:12.107Z,1.82
2023-12-08T08:57:41.471Z,1.83
2023-12-08T09:00:14.282Z,1.87
2023-12-08T09:02:45.998Z,1.91
2023-12-08T09:05:16.427Z,1.93
2023-12-08T09:07:46.476Z,1.93
2023-12-08T09:10:17.283Z,2.02
2023-12-08T09:12:48.669Z,2.09
2023-12-08T09:15:18.184Z,2.15
2023-12-08T09:17:47.987Z,2.18
2023-12-08T09:20:18.869Z,2.19
2023-12-08T09:22:48.135Z,2.23
2023-12-08T09:25:16.956Z,2.29
2023-12-08T09:27:45.807Z,2.34
2023-12-08T09:30:15.975Z,2.40
2023-12-08T09:32:44.499Z,2.44
2023-12-08T09:35:13.762Z,2.49
2023-12-08T09:37:42.770Z,2.55
2023-12-08T09:40:15.432Z,2.59
2023-12-08T09:42:53.532Z,2.64
2023-12-08T09:45:22.760Z,2.68
2023-12-08T09:47:55.907Z,2.70
2023-12-08T09:50:25.758Z,2.73
2023-12-08T09:52:56.344Z,2.79
2023-12-08T09:55:28.258Z,2.84
2023-12-08T09:57:59.369Z,2.87
2023-12-08T10:00:32.825Z,2.88
2023-12-08T10:03:02.219Z,2.87
2023-12-08T10:05:31.360Z,2.83
2023-12-08T10:08:02.491Z,2.81
2023-12-08T10:10:31.810Z,2.74
2023-12-08T10:13:01.718Z,2.70
2023-12-08T10:15:32.700Z,2.67
2023-12-08T10:18:03.268Z,2.69
2023-12-08T10:20:33.025Z,2.71
2023-12-08T10:23:03.815Z,2.71
2023-12-08T10:25:34.315Z,2.77
2023-12-08T10:28:05.346Z,2.79
2023-12-08T10:30:35.508Z,2.74
2023-12-08T10:33:05.789Z,2.81
2023-12-08T10:35:39.529Z,2.82
2023-12-08T10:38:09.712Z,2.86
2023-12-08T10:41:27.019Z,2.88
2023-12-08T10:43:59.310Z,2.90
2023-12-08T10:46:34.572Z,2.91
2023-12-08T10:49:06.235Z,2.92
2023-12-08T10:51:38.028Z,2.95
2023-12-08T10:54:08.392Z,2.98
2023-12-08T10:56:38.575Z,2.98
2023-12-08T10:59:11.182Z,2.99
2023-12-08T11:01:41.645Z,3.00
2023-12-08T11:04:14.343Z,2.99
2023-12-08T11:07:05.607Z,2.96
2023-12-08T11:09:40.370Z,2.90
2023-12-08T11:12:15.362Z,2.85
2023-12-08T11:14:55.572Z,2.85
2023-12-08T11:17:37.473Z,2.92
2023-12-08T11:20:09.551Z,2.99
2023-12-08T11:22:39.154Z,3.04
2023-12-08T11:25:17.349Z,3.06
2023-12-08T11:28:00.846Z,3.01
2023-12-08T11:30:57.983Z,3.10
2023-12-08T11:33:33.467Z,3.10
2023-12-08T11:36:15.927Z,3.09
2023-12-08T11:38:45.491Z,3.06
2023-12-08T11:41:17.503Z,3.04
2023-12-08T11:43:48.053Z,3.05
2023-12-08T11:46:17.037Z,3.06
2023-12-08T11:48:50.628Z,3.07
2023-12-08T11:51:19.556Z,3.11
2023-12-08T11:53:59.159Z,3.14
2023-12-08T11:56:44.066Z,3.18
2023-12-08T11:59:25.841Z,3.24
2023-12-08T12:01:55.375Z,3.30
2023-12-08T12:04:24.440Z,3.35
2023-12-08T12:06:55.116Z,3.36
2023-12-08T12:09:24.694Z,3.34
2023-12-08T12:11:56.767Z,3.35
2023-12-08T12:14:27.496Z,3.35
2023-12-08T12:16:56.246Z,3.37
2023-12-08T12:19:25.976Z,3.38
2023-12-08T12:21:54.846Z,3.37
2023-12-08T12:24:23.627Z,3.39
2023-12-08T12:26:52.864Z,3.40
2023-12-08T12:29:22.744Z,3.41
2023-12-08T12:31:52.956Z,3.41
2023-12-08T12:34:21.818Z,3.41
2023-12-08T12:36:51.271Z,3.38
2023-12-08T12:39:21.113Z,3.35
2023-12-08T12:41:50.077Z,3.33
2023-12-08T12:44:19.173Z,3.31
2023-12-08T12:46:48.373Z,3.30
2023-12-08T12:49:17.342Z,3.33
2023-12-08T12:51:46.660Z,3.35
2023-12-08T12:54:23.330Z,3.34
2023-12-08T12:56:53.340Z,3.31
2023-12-08T12:59:22.135Z,3.27
2023-12-08T13:01:50.816Z,3.24
2023-12-08T13:04:19.428Z,3.16
2023-12-08T13:06:47.995Z,3.15
2023-12-08T13:09:27.145Z,3.15
2023-12-08T13:11:56.275Z,3.18
2023-12-08T13:14:25.517Z,3.22
2023-12-08T13:16:54.811Z,3.21
2023-12-08T13:19:23.642Z,3.25
2023-12-08T13:21:52.495Z,3.29
2023-12-08T13:24:20.990Z,3.34
2023-12-08T13:26:49.982Z,3.38
2023-12-08T13:29:19.380Z,3.40
2023-12-08T13:31:48.807Z,3.41
2023-12-08T13:34:17.806Z,3.41
2023-12-08T13:36:46.889Z,3.41
2023-12-08T13:39:15.664Z,3.42
2023-12-08T13:41:44.770Z,3.44
2023-12-08T13:44:13.769Z,3.46
2023-12-08T13:46:42.647Z,3.48
2023-12-08T13:49:12.192Z,3.49
2023-12-08T13:51:42.225Z,3.50
2023-12-08T13:54:11.950Z,3.49
2023-12-08T13:56:40.619Z,3.47
2023-12-08T13:59:09.832Z,3.44
2023-12-08T14:01:38.597Z,3.42
2023-12-08T14:04:09.276Z,3.40
2023-12-08T14:06:38.646Z,3.36
2023-12-08T14:09:07.322Z,3.30
2023-12-08T14:11:35.897Z,3.27
2023-12-08T14:14:04.806Z,3.22
2023-12-08T14:16:33.550Z,3.17
2023-12-08T14:19:03.630Z,3.12
2023-12-08T14:21:32.093Z,3.07
2023-12-08T14:24:00.800Z,3.02
2023-12-08T14:26:29.559Z,2.98
2023-12-08T14:28:58.125Z,2.95
2023-12-08T14:31:26.925Z,2.91
2023-12-08T14:33:57.026Z,2.86
2023-12-08T14:36:25.640Z,2.82
2023-12-08T14:38:56.194Z,2.77
2023-12-08T14:41:24.912Z,2.73
2023-12-08T14:43:55.963Z,2.68
2023-12-08T14:46:24.572Z,2.64
2023-12-08T14:48:53.375Z,2.58
2023-12-08T14:51:24.270Z,2.53
2023-12-08T14:53:53.389Z,2.48
2023-12-08T14:56:22.058Z,2.44
2023-12-08T14:58:51.637Z,2.40
2023-12-08T15:01:22.681Z,2.39
2023-12-08T15:03:51.600Z,2.24
2023-12-08T15:06:20.838Z,2.11
2023-12-08T15:08:49.722Z,2.06
2023-12-08T15:11:21.529Z,2.03
2023-12-08T15:13:50.456Z,2.04
2023-12-08T15:16:19.524Z,2.09
2023-12-08T15:18:48.675Z,2.06
2023-12-08T15:21:22.931Z,2.04
2023-12-08T15:23:57.938Z,2.01
2023-12-08T15:26:28.333Z,1.96
2023-12-08T15:28:58.198Z,1.93
2023-12-08T15:31:31.487Z,1.87
2023-12-08T15:34:04.290Z,1.87
2023-12-08T15:36:37.918Z,1.84
2023-12-08T15:39:10.519Z,1.80
2023-12-08T15:41:47.840Z,1.77
2023-12-08T15:44:17.469Z,1.74
2023-12-08T15:46:47.087Z,1.71
2023-12-08T15:49:17.099Z,1.69
2023-12-08T15:51:47.030Z,1.68
2023-12-08T15:54:16.825Z,1.67
2023-12-08T15:56:46.636Z,1.65
2023-12-08T15:59:16.068Z,1.65
2023-12-08T16:01:45.115Z,1.63
2023-12-08T16:04:14.338Z,1.52
2023-12-08T16:06:44.611Z,1.48
2023-12-08T16:09:13.871Z,1.45
2023-12-08T16:11:43.173Z,1.45
2023-12-08T16:14:12.552Z,1.53
2023-12-08T16:16:42.507Z,1.44
2023-12-08T16:19:13.076Z,1.39
2023-12-08T16:21:43.267Z,1.49
2023-12-08T16:24:12.904Z,1.48
2023-12-08T16:26:41.928Z,1.49
2023-12-08T16:29:11.316Z,1.45
2023-12-08T16:31:41.564Z,1.52
2023-12-08T16:34:11.727Z,1.53
2023-12-08T16:36:41.290Z,1.50
2023-12-08T16:39:14.866Z,1.51
2023-12-08T16:41:49.609Z,1.43
2023-12-08T16:44:19.609Z,1.28
2023-12-08T16:46:49.962Z,1.22
2023-12-08T16:49:19.704Z,1.18
2023-12-08T16:51:51.541Z,1.16
2023-12-08T16:54:22.589Z,1.13
2023-12-08T16:56:53.206Z,1.14
2023-12-08T16:59:22.885Z,1.13
2023-12-08T17:01:53.125Z,1.16
2023-12-08T17:04:23.163Z,1.19
2023-12-08T17:06:57.025Z,1.20
2023-12-08T17:09:27.191Z,1.24
2023-12-08T17:11:58.388Z,1.28
2023-12-08T17:14:28.439Z,1.31
2023-12-08T17:17:02.946Z,1.30
2023-12-08T17:19:34.265Z,1.29
2023-12-08T17:22:05.250Z,1.29
2023-12-08T17:24:35.496Z,1.31
2023-12-08T17:27:06.034Z,1.33
2023-12-08T17:29:36.117Z,1.35
2023-12-08T17:32:06.556Z,1.36
2023-12-08T17:34:36.975Z,1.39
2023-12-08T17:37:07.918Z,1.42
2023-12-08T17:39:37.949Z,1.46
2023-12-08T17:42:10.024Z,1.50
2023-12-08T17:44:39.690Z,1.54
2023-12-08T17:47:12.749Z,1.56
2023-12-08T17:49:43.151Z,1.60
2023-12-08T17:52:13.074Z,1.62
2023-12-08T17:54:43.724Z,1.64
2023-12-08T17:57:14.352Z,1.66
2023-12-08T17:59:44.014Z,1.67
2023-12-08T18:02:14.641Z,1.69
2023-12-08T18:04:43.720Z,1.72
2023-12-08T18:07:13.857Z,1.73
2023-12-08T18:09:44.177Z,1.73
2023-12-08T18:12:14.582Z,1.73
2023-12-08T18:14:43.809Z,1.73
2023-12-08T18:17:13.613Z,1.72
2023-12-08T18:19:43.761Z,1.73
2023-12-08T18:22:13.465Z,1.74
2023-12-08T18:24:42.436Z,1.74
2023-12-08T18:27:20.070Z,1.73
2023-12-08T18:29:58.409Z,1.75
2023-12-08T18:32:28.315Z,1.76
2023-12-08T18:34:57.545Z,1.74
2023-12-08T18:37:26.315Z,1.74
2023-12-08T18:39:55.223Z,1.72
2023-12-08T18:42:26.070Z,1.73
2023-12-08T18:44:55.619Z,1.69
2023-12-08T18:47:24.758Z,1.64
2023-12-08T18:49:55.110Z,1.62
2023-12-08T18:52:25.161Z,1.64
2023-12-08T18:54:54.927Z,1.66
2023-12-08T18:57:25.542Z,1.69
2023-12-08T18:59:56.950Z,1.71
2023-12-08T19:02:27.742Z,1.72
2023-12-08T19:05:02.257Z,1.73
2023-12-08T19:07:33.235Z,1.70
2023-12-08T19:10:03.213Z,1.64
2023-12-08T19:12:32.370Z,1.63
2023-12-08T19:15:01.778Z,1.58
2023-12-08T19:17:31.657Z,1.54
2023-12-08T19:20:02.617Z,1.52
2023-12-08T19:22:31.871Z,1.44
2023-12-08T19:25:02.758Z,1.47
2023-12-08T19:27:33.235Z,1.48
2023-12-08T19:30:03.022Z,1.52
2023-12-08T19:32:32.806Z,1.55
2023-12-08T19:35:06.314Z,1.59
2023-12-08T19:37:36.960Z,1.63
2023-12-08T19:40:07.385Z,1.68
2023-12-08T19:42:37.518Z,1.73
2023-12-08T19:45:07.541Z,1.78
2023-12-08T19:47:37.334Z,1.82
2023-12-08T19:50:07.946Z,1.82
2023-12-08T19:52:38.869Z,1.84
2023-12-08T19:55:11.682Z,1.81
2023-12-08T19:57:43.683Z,1.81
2023-12-08T20:00:15.752Z,1.82
2023-12-08T20:02:47.016Z,1.88
2023-12-08T20:05:16.613Z,1.91
2023-12-08T20:07:47.653Z,1.97
2023-12-08T20:10:18.020Z,2.03
2023-12-08T20:12:48.469Z,2.08
2023-12-08T20:15:27.337Z,2.12
2023-12-08T20:18:00.171Z,2.16
2023-12-08T20:20:32.998Z,2.22
2023-12-08T20:23:02.825Z,2.28
2023-12-08T20:25:33.051Z,2.30
2023-12-08T20:28:04.069Z,2.37
2023-12-08T20:30:33.584Z,2.40
2023-12-08T20:33:04.102Z,2.43
2023-12-08T20:35:33.605Z,2.44
2023-12-08T20:38:02.597Z,2.47
2023-12-08T20:40:31.660Z,2.50
2023-12-08T20:43:03.556Z,2.54
2023-12-08T20:45:33.311Z,2.56
2023-12-08T20:48:03.232Z,2.57
2023-12-08T20:50:32.538Z,2.60
2023-12-08T20:53:02.097Z,2.63
2023-12-08T20:55:32.208Z,2.65
2023-12-08T20:58:01.528Z,2.66
2023-12-08T21:00:30.732Z,2.67
2023-12-08T21:03:01.110Z,2.70
2023-12-08T21:05:30.325Z,2.73
2023-12-08T21:08:00.132Z,2.75
2023-12-08T21:10:29.815Z,2.77
2023-12-08T21:12:59.700Z,2.79
2023-12-08T21:15:29.196Z,2.80
2023-12-08T21:17:58.508Z,2.84
2023-12-08T21:20:27.583Z,2.82
2023-12-08T21:22:56.810Z,2.86
2023-12-08T21:25:25.698Z,2.89
2023-12-08T21:27:56.038Z,2.85
2023-12-08T21:30:25.720Z,2.82
2023-12-08T21:32:55.206Z,2.80
2023-12-08T21:35:24.595Z,2.83
2023-12-08T21:37:54.510Z,2.85
2023-12-08T21:40:23.564Z,2.86
2023-12-08T21:42:54.816Z,2.87
2023-12-08T21:45:24.025Z,2.88
2023-12-08T21:47:53.139Z,2.87
2023-12-08T21:50:23.957Z,2.87
2023-12-08T21:52:54.252Z,2.87
2023-12-08T21:55:23.981Z,2.88
2023-12-08T21:57:53.514Z,2.88
2023-12-08T22:00:24.502Z,2.91
2023-12-08T22:02:56.173Z,2.93
2023-12-08T22:05:26.402Z,2.96
2023-12-08T22:07:56.437Z,3.01
2023-12-08T22:10:26.536Z,3.04
2023-12-08T22:12:55.956Z,3.05
2023-12-08T22:15:24.553Z,3.04
2023-12-08T22:17:54.069Z,3.06
2023-12-08T22:20:23.010Z,3.06
2023-12-08T22:22:52.525Z,3.05
2023-12-08T22:25:21.637Z,3.03
2023-12-08T22:27:50.807Z,3.05
2023-12-08T22:30:20.172Z,3.07
2023-12-08T22:32:49.433Z,3.09
2023-12-08T22:35:18.748Z,3.12
2023-12-08T22:37:50.242Z,3.14
2023-12-08T22:40:19.871Z,3.16
2023-12-08T22:42:49.625Z,3.19
2023-12-08T22:45:18.605Z,3.20
2023-12-08T22:47:49.145Z,3.22
2023-12-08T22:50:18.043Z,3.26
2023-12-08T22:52:46.945Z,3.30
2023-12-08T22:55:15.866Z,3.29
2023-12-08T22:57:44.302Z,3.26
2023-12-08T23:00:13.713Z,3.24
2023-12-08T23:02:42.777Z,3.22
2023-12-08T23:05:12.042Z,3.18
2023-12-08T23:07:40.527Z,3.16
2023-12-08T23:10:09.845Z,3.15
2023-12-08T23:12:39.315Z,3.14
2023-12-08T23:15:09.425Z,3.13
2023-12-08T23:17:39.110Z,3.13
2023-12-08T23:20:08.278Z,3.13
2023-12-08T23:22:36.745Z,3.16
2023-12-08T23:25:05.773Z,3.18
2023-12-08T23:27:34.432Z,3.19
2023-12-08T23:30:04.911Z,3.20
2023-12-08T23:32:33.717Z,3.21
2023-12-08T23:35:05.398Z,3.23
2023-12-08T23:37:34.085Z,3.23
2023-12-08T23:40:02.903Z,3.22
2023-12-08T23:42:31.917Z,3.22
2023-12-08T23:45:00.819Z,3.23
2023-12-08T23:47:29.770Z,3.25
2023-12-08T23:49:58.339Z,3.30
2023-12-08T23:52:27.302Z,3.29
2023-12-08T23:54:56.107Z,3.26
2023-12-08T23:57:24.629Z,3.22
2023-12-08T23:59:53.208Z,3.21
